Time;durP1;ratioP1;P1;durP2;ratioP2;P2;SDS_P1;SDS_P2;PMS_P1;PMS_P2;Temp;Humidity;BMP_temperature;BMP_pressure;BME280_temperature;BME280_humidity;BME280_pressure;Samples;Min_cycle;Max_cycle;Signal;HPM_P1;HPM_P2
2022/09/17 00:00:47;;;;;;;3.03;1.40;;;;;;;13.39;67.89;99544.56;4998742;28;20133;-91
2022/09/17 00:03:14;;;;;;;2.85;1.52;;;;;;;13.41;68.03;99547.94;4997423;28;20042;-89
2022/09/17 00:05:42;;;;;;;2.92;1.52;;;;;;;13.34;68.34;99548.72;5009186;28;21400;-89
2022/09/17 00:08:11;;;;;;;3.28;1.25;;;;;;;13.33;68.52;99555.03;4998008;28;20073;-89
2022/09/17 00:10:40;;;;;;;6.25;1.17;;;;;;;13.27;68.30;99547.69;5018049;28;20497;-90
2022/09/17 00:13:07;;;;;;;4.53;1.50;;;;;;;13.25;68.31;99548.66;5013494;28;20068;-89
2022/09/17 00:15:41;;;;;;;3.55;1.38;;;;;;;13.15;68.50;99555.97;4992688;28;20049;-90
2022/09/17 00:18:08;;;;;;;7.28;1.50;;;;;;;13.30;68.08;99550.88;5024138;28;20033;-89
2022/09/17 00:20:42;;;;;;;3.65;1.40;;;;;;;13.24;67.29;99551.47;5005903;28;20092;-90
2022/09/17 00:23:10;;;;;;;3.75;1.52;;;;;;;13.26;67.56;99552.16;5010145;28;20049;-89
2022/09/17 00:25:42;;;;;;;4.35;1.60;;;;;;;13.28;67.97;99552.88;5010364;28;20475;-89
2022/09/17 00:28:10;;;;;;;2.58;1.30;;;;;;;13.24;68.12;99554.16;4992864;28;20378;-90
2022/09/17 00:31:26;;;;;;;3.45;1.30;;;;;;;12.98;68.75;99551.53;5023922;28;20097;-89
2022/09/17 00:33:53;;;;;;;8.85;1.40;;;;;;;13.10;68.16;99555.59;4946013;28;20049;-89
2022/09/17 00:36:21;;;;;;;8.85;1.30;;;;;;;13.17;68.02;99550.44;4990645;28;20068;-89
2022/09/17 00:38:52;;;;;;;4.82;1.52;;;;;;;13.10;67.95;99550.25;5005351;28;20049;-89
2022/09/17 00:41:20;;;;;;;4.78;1.23;;;;;;;13.06;68.25;99548.06;5009719;28;20092;-89
2022/09/17 00:43:50;;;;;;;2.45;1.40;;;;;;;13.04;67.84;99554.38;5010576;28;20111;-89
2022/09/17 00:46:39;;;;;;;2.88;1.00;;;;;;;12.77;68.92;99547.41;4994735;28;20049;-88
2022/09/17 00:49:21;;;;;;;4.28;1.50;;;;;;;12.92;68.41;99560.13;4994129;28;20569;-89
2022/09/17 00:51:53;;;;;;;1.83;1.10;;;;;;;13.02;69.11;99552.88;4976908;28;20050;-90
2022/09/17 00:54:25;;;;;;;2.97;1.17;;;;;;;13.10;68.05;99557.41;5028635;28;20497;-90
2022/09/17 00:56:52;;;;;;;5.95;1.40;;;;;;;13.04;68.81;99546.38;4998210;28;20069;-90
2022/09/17 00:59:21;;;;;;;5.32;1.60;;;;;;;13.06;68.45;99556.91;5009192;28;20057;-90
2022/09/17 01:01:48;;;;;;;4.10;1.27;;;;;;;13.09;68.14;99553.91;5023311;28;20452;-90
2022/09/17 01:04:19;;;;;;;1.48;1.00;;;;;;;12.98;69.03;99546.19;4993316;28;20057;-91
2022/09/17 01:07:15;;;;;;;4.70;1.52;;;;;;;12.91;68.14;99550.47;4994650;28;20040;-91
2022/09/17 01:10:05;;;;;;;3.28;1.20;;;;;;;12.77;68.85;99555.41;4962567;28;20453;-91
2022/09/17 01:12:34;;;;;;;2.40;1.38;;;;;;;13.05;68.59;99547.22;5008278;28;20049;-90
2022/09/17 01:15:26;;;;;;;5.43;1.30;;;;;;;12.92;68.97;99552.13;4989638;28;20068;-91
2022/09/17 01:18:31;;;;;;;5.75;1.10;;;;;;;13.02;68.20;99550.19;4993014;28;20093;-91
2022/09/17 01:21:10;;;;;;;5.18;1.42;;;;;;;13.23;67.48;99550.66;4993860;28;20117;-91
2022/09/17 01:24:01;;;;;;;4.72;1.63;;;;;;;13.02;67.37;99551.03;4961145;28;20049;-90
2022/09/17 01:26:53;;;;;;;4.18;1.42;;;;;;;13.13;67.63;99544.59;4952837;28;20037;-90
2022/09/17 01:29:45;;;;;;;3.10;1.42;;;;;;;13.10;67.44;99550.25;5012494;28;20123;-90
2022/09/17 01:32:24;;;;;;;3.78;1.50;;;;;;;13.26;66.24;99552.16;4980317;28;20049;-88
2022/09/17 01:35:12;;;;;;;5.13;1.65;;;;;;;13.12;67.90;99552.75;4988877;28;20045;-89
2022/09/17 01:38:03;;;;;;;7.60;1.42;;;;;;;13.17;66.64;99545.94;4983748;28;20053;-90
2022/09/17 01:40:52;;;;;;;2.33;1.27;;;;;;;13.13;67.17;99554.44;4957199;28;20042;-90
2022/09/17 01:43:31;;;;;;;5.60;1.40;;;;;;;13.06;68.12;99548.06;4978533;28;20063;-91
2022/09/17 01:46:10;;;;;;;8.57;1.42;;;;;;;13.08;67.37;99556.72;4970181;28;20128;-91
2022/09/17 01:48:41;;;;;;;5.05;1.55;;;;;;;13.16;67.40;99557.63;5015885;28;20050;-89
2022/09/17 01:51:11;;;;;;;6.70;1.20;;;;;;;13.13;67.48;99559.78;5001879;28;20048;-90
2022/09/17 01:54:14;;;;;;;4.15;1.95;;;;;;;12.92;67.87;99557.47;5009304;28;20124;-89
2022/09/17 01:57:07;;;;;;;4.57;1.40;;;;;;;13.04;67.94;99558.88;4923397;28;20045;-90
2022/09/17 01:59:42;;;;;;;5.40;1.88;;;;;;;13.02;67.46;99560.88;4975478;28;20041;-91
2022/09/17 02:02:16;;;;;;;2.97;1.40;;;;;;;13.03;67.14;99567.88;4992189;28;20119;-91
2022/09/17 02:04:58;;;;;;;6.50;1.60;;;;;;;12.84;68.37;99568.09;4972151;28;20052;-90
2022/09/17 02:07:26;;;;;;;6.32;1.50;;;;;;;12.97;68.41;99571.16;4978116;28;20477;-90
2022/09/17 02:10:02;;;;;;;10.10;1.73;;;;;;;12.80;68.68;99573.72;5024956;28;20041;-90
2022/09/17 02:12:34;;;;;;;7.30;2.63;;;;;;;12.91;68.34;99575.28;4978684;28;20063;-91
2022/09/17 02:15:36;;;;;;;9.63;1.60;;;;;;;12.73;68.02;99582.50;5002819;28;20104;-91
2022/09/17 02:18:12;;;;;;;4.85;1.40;;;;;;;12.93;67.31;99583.16;4958814;28;20119;-90
2022/09/17 02:20:45;;;;;;;5.70;1.58;;;;;;;12.95;67.30;99570.47;5010080;28;20127;-90
2022/09/17 02:23:16;;;;;;;7.65;1.50;;;;;;;12.96;66.77;99578.31;4971428;28;20500;-91
2022/09/17 02:25:56;;;;;;;3.85;1.25;;;;;;;12.87;67.65;99575.75;4993916;28;20038;-92
2022/09/17 02:28:47;;;;;;;4.72;1.92;;;;;;;12.81;67.82;99586.06;4976996;28;20072;-90
2022/09/17 02:31:14;;;;;;;7.63;1.50;;;;;;;13.03;66.89;99584.69;4958605;28;20428;-91
2022/09/17 02:33:44;;;;;;;5.30;2.03;;;;;;;12.93;67.71;99577.81;5004860;28;20045;-89
2022/09/17 02:36:10;;;;;;;4.38;1.60;;;;;;;13.01;67.29;99585.84;4951241;28;20613;-89
2022/09/17 02:38:40;;;;;;;5.65;1.40;;;;;;;13.01;67.01;99576.03;4935125;28;20534;-91
2022/09/17 02:41:13;;;;;;;2.60;1.30;;;;;;;12.85;67.91;99581.25;4944787;28;20094;-92
2022/09/17 02:43:50;;;;;;;4.18;1.20;;;;;;;12.84;67.89;99568.91;4969209;28;20077;-90
2022/09/17 02:46:50;;;;;;;2.13;1.20;;;;;;;12.73;68.02;99574.50;4936009;28;20445;-91
2022/09/17 02:49:28;;;;;;;3.42;1.30;;;;;;;12.64;68.12;99572.78;4897923;28;20401;-90
2022/09/17 02:52:04;;;;;;;4.40;1.60;;;;;;;12.75;67.85;99575.19;4950345;28;20043;-91
2022/09/17 02:54:39;;;;;;;7.07;1.50;;;;;;;12.54;68.48;99573.72;4934894;28;20466;-90
2022/09/17 02:57:24;;;;;;;5.05;1.60;;;;;;;12.60;68.14;99575.75;4945255;28;20091;-90
2022/09/17 02:59:57;;;;;;;8.63;1.60;;;;;;;12.60;68.55;99574.94;4932563;28;20114;-90
2022/09/17 03:02:27;;;;;;;4.38;1.50;;;;;;;12.67;68.40;99575.97;4953195;28;20517;-90
2022/09/17 03:04:55;;;;;;;8.50;1.77;;;;;;;12.66;68.40;99578.78;4940429;28;21001;-91
2022/09/17 03:07:22;;;;;;;3.78;1.50;;;;;;;12.70;68.52;99583.66;4994524;28;20041;-92
2022/09/17 03:09:48;;;;;;;6.32;1.50;;;;;;;12.65;68.03;99577.13;5006128;28;20132;-90
2022/09/17 03:12:15;;;;;;;5.80;1.70;;;;;;;12.60;68.16;99582.91;5008972;28;20120;-91
2022/09/17 03:14:42;;;;;;;7.15;2.65;;;;;;;12.61;67.86;99579.25;5009816;28;20120;-90
2022/09/17 03:17:10;;;;;;;10.73;2.22;;;;;;;12.55;68.54;99583.38;4999904;28;20045;-91
2022/09/17 03:19:36;;;;;;;4.95;1.55;;;;;;;12.52;68.29;99581.03;4973272;28;20056;-91
2022/09/17 03:22:03;;;;;;;7.03;1.60;;;;;;;12.52;68.15;99570.38;4992142;28;20065;-89
2022/09/17 03:24:30;;;;;;;6.43;1.90;;;;;;;12.54;68.30;99570.19;4992446;28;20076;-90
2022/09/17 03:26:56;;;;;;;7.28;1.83;;;;;;;12.52;68.22;99575.69;5019083;28;20097;-91
2022/09/17 03:29:23;;;;;;;2.03;1.30;;;;;;;12.49;68.27;99576.00;5018186;28;20053;-89
2022/09/17 03:31:50;;;;;;;5.25;1.70;;;;;;;12.50;68.04;99580.34;5006385;28;20128;-89
2022/09/17 03:38:00;;;;;;;5.88;1.60;;;;;;;12.47;68.10;99577.16;4967355;28;20224;-89
2022/09/17 03:40:27;;;;;;;8.48;1.80;;;;;;;12.47;68.30;99574.50;5015443;28;20516;-88
2022/09/17 03:42:54;;;;;;;5.38;1.85;;;;;;;12.55;68.28;99586.03;5001491;28;21663;-89
2022/09/17 03:45:20;;;;;;;7.22;1.77;;;;;;;12.65;67.99;99590.44;5022634;28;20045;-89
2022/09/17 03:47:47;;;;;;;7.55;2.90;;;;;;;12.65;68.06;99583.28;5005205;28;20484;-89
2022/09/17 03:50:14;;;;;;;6.25;3.88;;;;;;;12.67;68.08;99586.63;4989978;28;20068;-90
2022/09/17 03:52:42;;;;;;;9.90;3.30;;;;;;;12.65;68.47;99585.94;5018417;28;20084;-91
2022/09/17 03:55:10;;;;;;;5.50;2.65;;;;;;;12.60;68.41;99580.25;5006189;28;20132;-89
2022/09/17 03:57:36;;;;;;;6.47;1.88;;;;;;;12.68;68.22;99582.97;4977395;28;20111;-89
2022/09/17 04:00:04;;;;;;;7.68;2.33;;;;;;;12.71;68.23;99590.66;5021846;28;20135;-89
2022/09/17 04:02:37;;;;;;;7.57;1.80;;;;;;;12.72;67.97;99591.47;4994604;28;20045;-90
2022/09/17 04:05:57;;;;;;;6.68;2.00;;;;;;;12.57;67.36;99597.38;4988377;28;20042;-89
2022/09/17 04:08:24;;;;;;;6.03;2.25;;;;;;;12.65;68.23;99599.28;4945894;28;20084;-90
2022/09/17 04:10:51;;;;;;;8.95;2.45;;;;;;;12.65;68.50;99601.09;4994991;28;20061;-91
2022/09/17 04:13:18;;;;;;;7.03;2.40;;;;;;;12.69;67.84;99602.44;4992765;28;20042;-89
2022/09/17 04:15:45;;;;;;;8.30;2.42;;;;;;;12.65;68.22;99601.94;4987208;28;20466;-90
2022/09/17 04:18:12;;;;;;;12.48;2.45;;;;;;;12.67;68.08;99602.63;4976108;28;20448;-90
2022/09/17 04:20:39;;;;;;;8.43;2.20;;;;;;;12.69;68.34;99600.63;5000866;28;20044;-88
2022/09/17 04:23:07;;;;;;;7.97;2.03;;;;;;;12.69;67.76;99595.28;5023304;28;20392;-89
2022/09/17 04:25:34;;;;;;;2.70;1.60;;;;;;;12.72;67.60;99605.66;5009992;28;20049;-90
2022/09/17 04:28:01;;;;;;;7.72;1.88;;;;;;;12.70;68.17;99599.63;4992535;28;20056;-90
2022/09/17 04:34:57;;;;;;;10.85;2.20;;;;;;;12.68;67.74;99601.63;4994563;28;20025;-90
2022/09/17 04:37:24;;;;;;;8.02;2.30;;;;;;;12.70;68.03;99607.63;5002262;28;20131;-91
2022/09/17 04:39:51;;;;;;;5.18;1.85;;;;;;;12.70;67.95;99604.13;5019180;28;20053;-90
2022/09/17 04:42:18;;;;;;;7.13;2.03;;;;;;;12.71;68.26;99611.97;5009188;28;20065;-89
2022/09/17 04:44:45;;;;;;;5.38;1.75;;;;;;;12.77;67.65;99610.50;5034900;28;20041;-90
2022/09/17 04:47:12;;;;;;;6.40;2.50;;;;;;;12.77;67.84;99615.81;4994127;28;20065;-89
2022/09/17 04:49:38;;;;;;;10.18;2.80;;;;;;;12.81;67.19;99615.38;4995562;28;20493;-91
2022/09/17 04:52:05;;;;;;;5.63;2.90;;;;;;;12.81;67.50;99612.69;5020643;28;20041;-90
2022/09/17 04:54:32;;;;;;;6.47;2.70;;;;;;;12.77;67.40;99624.69;5003930;28;20049;-88
2022/09/17 04:56:59;;;;;;;9.55;2.50;;;;;;;12.71;68.70;99622.63;5023344;28;20041;-90
2022/09/17 04:59:26;;;;;;;12.45;2.58;;;;;;;12.69;69.02;99629.91;4992430;28;20053;-90
2022/09/17 05:01:52;;;;;;;8.00;2.30;;;;;;;12.71;69.29;99633.28;5003249;28;20563;-91
2022/09/17 05:04:19;;;;;;;9.65;2.75;;;;;;;12.64;69.45;99626.88;5010516;28;20046;-90
2022/09/17 05:06:46;;;;;;;12.20;3.05;;;;;;;12.67;69.86;99637.25;4989257;28;20051;-89
2022/09/17 05:09:13;;;;;;;6.95;2.67;;;;;;;12.68;70.10;99632.75;4979773;28;20473;-89
2022/09/17 05:11:40;;;;;;;12.20;2.60;;;;;;;12.72;69.11;99634.97;4999096;28;20049;-89
2022/09/17 05:14:07;;;;;;;4.82;2.47;;;;;;;12.71;69.01;99635.09;5003671;28;20045;-88
2022/09/17 05:16:34;;;;;;;8.48;3.42;;;;;;;12.67;69.96;99637.25;5027780;28;20492;-89
2022/09/17 05:19:00;;;;;;;4.53;2.20;;;;;;;12.69;70.09;99640.56;5001171;28;20044;-88
2022/09/17 05:21:27;;;;;;;7.65;2.63;;;;;;;12.69;70.29;99634.41;5001063;28;20041;-89
2022/09/17 05:23:54;;;;;;;9.88;2.03;;;;;;;12.80;68.94;99642.19;5018637;28;20045;-90
2022/09/17 05:26:21;;;;;;;9.48;2.92;;;;;;;12.73;69.46;99643.78;5019576;28;20124;-89
2022/09/17 05:28:47;;;;;;;9.35;3.20;;;;;;;12.71;70.41;99643.94;5022832;28;20741;-90
2022/09/17 05:31:14;;;;;;;9.18;3.10;;;;;;;12.72;70.10;99639.44;4987891;28;20041;-89
2022/09/17 05:33:41;;;;;;;8.40;3.00;;;;;;;12.71;70.49;99651.91;4992577;28;20060;-89
2022/09/17 05:36:08;;;;;;;11.05;3.67;;;;;;;12.67;70.58;99650.56;5003530;28;20081;-88
2022/09/17 05:38:35;;;;;;;5.15;2.55;;;;;;;12.68;70.52;99651.41;5005174;28;20075;-87
2022/09/17 05:41:05;;;;;;;9.82;2.80;;;;;;;12.66;71.19;99651.53;5015860;28;20512;-88
2022/09/17 05:43:32;;;;;;;9.65;2.92;;;;;;;12.65;71.16;99643.72;5019430;28;20045;-89
2022/09/17 05:46:03;;;;;;;11.32;2.50;;;;;;;12.65;72.10;99652.53;5014316;28;20067;-88
2022/09/17 05:48:29;;;;;;;4.32;2.50;;;;;;;12.68;71.45;99654.91;5017265;28;20051;-88
2022/09/17 05:50:56;;;;;;;6.78;2.90;;;;;;;12.67;71.55;99653.25;4973387;28;20481;-87
2022/09/17 05:53:24;;;;;;;9.70;2.90;;;;;;;12.68;71.82;99651.41;4997245;28;20069;-88
2022/09/17 05:55:56;;;;;;;7.30;2.65;;;;;;;12.62;71.69;99660.84;5033706;28;20033;-88
2022/09/17 05:58:23;;;;;;;4.10;2.50;;;;;;;12.65;71.94;99660.53;4987757;28;20044;-88
2022/09/17 06:00:49;;;;;;;7.18;2.40;;;;;;;12.70;71.48;99657.41;5003527;28;20113;-89
2022/09/17 06:03:17;;;;;;;9.82;2.88;;;;;;;12.70;72.00;99660.09;5015067;28;20045;-89
2022/09/17 06:05:53;;;;;;;9.90;2.83;;;;;;;12.58;72.89;99656.81;5003136;28;20075;-88
2022/09/17 06:08:20;;;;;;;8.52;2.58;;;;;;;12.67;72.28;99653.25;5030317;28;20104;-88
2022/09/17 06:10:48;;;;;;;11.57;2.40;;;;;;;12.67;72.19;99663.03;4999555;28;20073;-86
2022/09/17 06:21:26;;;;;;;7.95;2.67;;;;;;;12.55;72.11;99681.09;5001831;28;20045;-86
2022/09/17 06:23:53;;;;;;;10.43;3.15;;;;;;;12.53;72.17;99685.72;4992456;28;22667;-86
2022/09/17 06:26:19;;;;;;;7.90;2.75;;;;;;;12.55;72.39;99687.25;5028022;28;20096;-87
2022/09/17 06:28:46;;;;;;;6.10;2.53;;;;;;;12.58;72.23;99694.94;5005697;28;20045;-85
2022/09/17 06:31:13;;;;;;;10.35;2.58;;;;;;;12.54;71.79;99693.59;5017467;28;20503;-87
2022/09/17 06:33:39;;;;;;;10.38;3.08;;;;;;;12.59;72.25;99698.44;5017404;28;20389;-86
2022/09/17 06:36:09;;;;;;;10.75;3.75;;;;;;;12.55;72.80;99695.25;5013182;28;20037;-87
2022/09/17 06:38:39;;;;;;;6.90;3.10;;;;;;;12.62;73.20;99708.81;5016388;28;20120;-86
2022/09/17 06:41:06;;;;;;;6.80;2.95;;;;;;;12.60;73.13;99694.78;5009585;28;20104;-85
2022/09/17 06:43:33;;;;;;;7.80;3.10;;;;;;;12.68;72.90;99702.03;5008271;28;20053;-85
2022/09/17 06:46:02;;;;;;;5.60;2.90;;;;;;;12.66;72.94;99696.84;4995294;28;20060;-86
2022/09/17 06:48:29;;;;;;;6.03;2.70;;;;;;;12.67;73.10;99703.84;4997741;28;20560;-86
2022/09/17 06:51:00;;;;;;;6.05;2.78;;;;;;;12.62;72.65;99698.16;4986745;28;20045;-86
2022/09/17 06:53:28;;;;;;;7.47;3.70;;;;;;;12.68;72.81;99697.53;4991479;28;20083;-86
2022/09/17 06:55:59;;;;;;;7.25;2.95;;;;;;;12.65;73.64;99699.66;5036116;28;20052;-86
2022/09/17 06:58:31;;;;;;;9.93;3.25;;;;;;;12.71;73.52;99691.06;4971115;28;20499;-83
2022/09/17 07:01:00;;;;;;;8.00;3.08;;;;;;;12.73;73.45;99689.91;5018452;28;20053;-83
2022/09/17 07:03:27;;;;;;;8.63;3.45;;;;;;;12.80;71.77;99690.16;5005064;28;20041;-83
2022/09/17 07:05:56;;;;;;;5.10;2.80;;;;;;;12.74;72.69;99680.09;5032836;28;20055;-83
2022/09/17 07:08:23;;;;;;;6.80;3.03;;;;;;;12.82;72.90;99690.81;5016014;28;20497;-83
2022/09/17 07:10:54;;;;;;;5.93;2.92;;;;;;;12.80;71.64;99687.47;5027353;28;20045;-83
2022/09/17 07:13:21;;;;;;;8.15;3.08;;;;;;;12.75;71.91;99695.94;5016983;28;20446;-83
2022/09/17 07:15:59;;;;;;;7.68;3.53;;;;;;;12.66;73.10;99694.16;5025454;28;20045;-83
2022/09/17 07:18:27;;;;;;;11.32;3.50;;;;;;;12.78;73.17;99692.94;5014428;28;20445;-83
2022/09/17 07:21:00;;;;;;;6.05;3.08;;;;;;;12.84;73.05;99702.16;5004662;28;20049;-84
2022/09/17 07:23:29;;;;;;;6.27;3.17;;;;;;;12.84;72.24;99717.31;5023162;28;20107;-84
2022/09/17 07:25:58;;;;;;;9.02;3.17;;;;;;;12.96;71.99;99710.75;5031917;28;20119;-85
2022/09/17 07:28:25;;;;;;;7.20;3.08;;;;;;;12.93;72.11;99714.56;5022638;28;20041;-83
2022/09/17 07:30:52;;;;;;;9.32;3.33;;;;;;;12.90;71.42;99706.88;5018675;28;20095;-82
2022/09/17 07:33:23;;;;;;;7.53;2.90;;;;;;;12.87;71.37;99707.16;5034169;28;20041;-83
2022/09/17 07:35:53;;;;;;;14.15;3.80;;;;;;;12.89;72.21;99720.34;5021019;28;20044;-84
2022/09/17 07:38:21;;;;;;;10.10;3.15;;;;;;;12.90;71.93;99714.03;5030369;28;20488;-84
2022/09/17 07:41:08;;;;;;;12.68;3.67;;;;;;;12.69;72.10;99719.66;5030740;28;20041;-84
2022/09/17 07:43:35;;;;;;;5.93;2.40;;;;;;;13.12;74.79;99720.72;4970467;28;20136;-83
2022/09/17 07:46:04;;;;;;;12.70;3.85;;;;;;;13.28;74.08;99714.69;5041209;28;20049;-84
2022/09/17 07:48:31;;;;;;;15.18;3.30;;;;;;;13.24;73.16;99725.63;5041973;28;20436;-84
2022/09/17 07:50:58;;;;;;;10.07;3.28;;;;;;;13.24;72.56;99724.81;5022713;28;20068;-84
2022/09/17 07:53:26;;;;;;;12.95;3.35;;;;;;;13.18;72.09;99726.25;5039109;28;20096;-85
2022/09/17 07:55:55;;;;;;;9.77;3.75;;;;;;;13.24;72.35;99730.97;5006586;28;20037;-84
2022/09/17 07:58:26;;;;;;;14.85;3.55;;;;;;;13.27;72.07;99737.00;5019181;28;20427;-83
2022/09/17 08:01:02;;;;;;;13.27;4.15;;;;;;;13.21;71.99;99725.13;5030623;28;20132;-83
2022/09/17 08:03:29;;;;;;;9.45;3.67;;;;;;;13.22;71.25;99735.59;4978444;28;20471;-84
2022/09/17 08:06:05;;;;;;;8.55;3.70;;;;;;;13.20;72.02;99740.28;5022847;28;20059;-83
2022/09/17 08:08:33;;;;;;;13.55;4.30;;;;;;;13.30;72.18;99740.19;5012056;28;20033;-83
2022/09/17 08:11:11;;;;;;;6.80;3.97;;;;;;;13.31;72.42;99738.41;5038196;28;20501;-83
2022/09/17 08:13:38;;;;;;;15.65;4.30;;;;;;;13.31;72.40;99741.88;5009848;28;20480;-83
2022/09/17 08:16:11;;;;;;;11.00;3.80;;;;;;;13.33;72.94;99752.38;5033694;28;20055;-83
2022/09/17 08:18:41;;;;;;;9.18;3.70;;;;;;;13.34;72.46;99754.06;5005525;28;20489;-84
2022/09/17 08:21:10;;;;;;;12.07;3.70;;;;;;;13.28;72.44;99752.00;5034230;28;20047;-83
2022/09/17 08:23:39;;;;;;;8.27;3.97;;;;;;;13.28;73.05;99744.00;5003561;28;20052;-83
2022/09/17 08:26:07;;;;;;;12.30;3.97;;;;;;;13.31;72.61;99752.56;5035801;28;20045;-83
2022/09/17 08:28:34;;;;;;;13.75;4.50;;;;;;;13.34;72.36;99751.41;5013830;28;20439;-83
2022/09/17 08:31:05;;;;;;;10.75;3.55;;;;;;;13.38;72.58;99753.63;5007089;28;20033;-84
2022/09/17 08:33:33;;;;;;;15.35;4.22;;;;;;;13.38;72.40;99753.63;5007050;28;20037;-83
2022/09/17 08:36:01;;;;;;;12.07;3.95;;;;;;;13.38;72.82;99755.41;5023151;28;20048;-83
2022/09/17 08:38:31;;;;;;;20.95;5.47;;;;;;;13.39;72.43;99752.59;5017730;28;20159;-83
2022/09/17 08:41:09;;;;;;;11.05;3.97;;;;;;;13.29;73.30;99759.88;5006359;28;20053;-83
2022/09/17 08:43:48;;;;;;;7.28;3.72;;;;;;;13.27;73.61;99761.00;5039026;28;20048;-83
2022/09/17 08:46:15;;;;;;;13.70;4.18;;;;;;;13.35;73.09;99764.56;4991869;28;20070;-83
2022/09/17 08:48:53;;;;;;;11.13;4.38;;;;;;;13.34;73.19;99762.06;5006872;28;20127;-83
2022/09/17 08:52:17;;;;;;;12.82;4.50;;;;;;;13.34;73.52;99760.25;4721707;29;20105;-83
2022/09/17 08:55:02;;;;;;;11.80;4.38;;;;;;;13.38;73.26;99761.63;4751119;29;20053;-83
2022/09/17 08:57:52;;;;;;;15.82;4.40;;;;;;;13.33;74.02;99757.72;4787787;29;20049;-83
2022/09/17 09:00:21;;;;;;;14.98;5.50;;;;;;;13.51;72.57;99747.00;4795172;29;20524;-82
2022/09/17 09:03:10;;;;;;;16.73;4.85;;;;;;;13.48;73.08;99747.31;4816689;29;20043;-83
2022/09/17 09:05:47;;;;;;;18.13;5.20;;;;;;;13.58;72.85;99745.38;4754871;29;20433;-83
2022/09/17 09:08:35;;;;;;;14.73;4.65;;;;;;;13.67;73.13;99757.81;4805566;29;20053;-83
2022/09/17 09:11:12;;;;;;;14.40;4.70;;;;;;;13.80;72.86;99752.03;4786828;29;20045;-83
2022/09/17 09:14:04;;;;;;;11.05;5.30;;;;;;;13.83;72.46;99749.88;4783562;29;20498;-83
2022/09/17 09:16:33;;;;;;;20.38;5.10;;;;;;;13.99;72.04;99750.94;4800462;29;20149;-83
2022/09/17 09:19:10;;;;;;;13.68;4.78;;;;;;;13.99;71.93;99743.81;4919902;29;20214;-83
2022/09/17 09:22:00;;;;;;;20.85;5.70;;;;;;;13.92;72.01;99747.25;4922824;29;20404;-83
2022/09/17 09:24:35;;;;;;;19.25;5.05;;;;;;;13.98;71.38;99750.13;4950578;28;20080;-84
2022/09/17 09:27:01;;;;;;;12.15;4.32;;;;;;;14.06;71.64;99750.16;5002822;28;20034;-83
2022/09/17 09:29:56;;;;;;;10.43;4.40;;;;;;;14.02;70.77;99745.31;5016703;28;20041;-84
2022/09/17 09:33:02;;;;;;;12.52;4.15;;;;;;;14.00;70.90;99741.97;4983640;28;20061;-84
2022/09/17 09:35:33;;;;;;;15.45;4.22;;;;;;;14.08;70.94;99739.31;4966314;28;20072;-83
2022/09/17 09:38:11;;;;;;;15.80;4.72;;;;;;;14.06;71.48;99736.78;5012573;28;20095;-83
2022/09/17 09:40:43;;;;;;;9.98;4.13;;;;;;;14.15;70.82;99728.84;5003956;28;20054;-83
2022/09/17 09:43:38;;;;;;;12.00;4.38;;;;;;;14.06;70.27;99742.13;5017155;28;20133;-83
2022/09/17 09:47:02;;;;;;;10.00;4.00;;;;;;;13.99;70.26;99741.13;4987039;28;20067;-83
2022/09/17 09:50:00;;;;;;;10.98;4.00;;;;;;;14.06;70.82;99741.31;4961064;28;20045;-83
2022/09/17 09:52:50;;;;;;;14.38;4.38;;;;;;;14.09;70.44;99738.31;4992232;28;20128;-82
2022/09/17 09:55:46;;;;;;;11.23;4.38;;;;;;;14.17;69.66;99735.69;4991192;28;20045;-84
2022/09/17 09:58:13;;;;;;;20.63;4.10;;;;;;;14.36;70.00;99736.41;4964104;28;20453;-83
2022/09/17 10:00:44;;;;;;;18.75;4.07;;;;;;;14.32;69.50;99746.56;5036396;28;20562;-84
2022/09/17 10:03:18;;;;;;;7.93;3.20;;;;;;;14.26;69.14;99739.22;4973598;28;20042;-84
2022/09/17 10:05:57;;;;;;;15.45;4.10;;;;;;;14.16;70.76;99752.69;4992792;28;20083;-82
2022/09/17 10:08:25;;;;;;;7.20;3.63;;;;;;;14.15;70.03;99747.53;4981870;28;20121;-82
2022/09/17 10:10:53;;;;;;;16.67;4.32;;;;;;;14.14;71.17;99748.50;4984747;28;20038;-82
2022/09/17 10:13:20;;;;;;;16.73;4.43;;;;;;;14.05;71.88;99758.34;4992906;28;20042;-82
2022/09/17 10:15:47;;;;;;;22.05;4.53;;;;;;;14.03;72.52;99757.66;4968174;28;20042;-84
2022/09/17 10:18:18;;;;;;;10.32;4.10;;;;;;;13.98;74.19;99758.13;4995191;28;20553;-84
2022/09/17 10:21:03;;;;;;;9.10;4.03;;;;;;;13.82;76.72;99750.06;4976610;28;20128;-84
2022/09/17 10:23:35;;;;;;;15.07;3.58;;;;;;;13.92;74.45;99739.22;4961748;28;20168;-82
2022/09/17 10:26:02;;;;;;;15.95;3.90;;;;;;;13.98;74.07;99747.44;4981661;28;20093;-83
2022/09/17 10:28:45;;;;;;;13.50;4.10;;;;;;;13.87;74.02;99731.72;4987379;28;20050;-82
2022/09/17 10:31:12;;;;;;;;;;;;;;;13.68;75.43;99730.09;4969005;28;20050;-82
2022/09/17 10:34:02;;;;;;;11.35;3.53;;;;;;;13.77;74.94;99721.16;5008098;28;19925;-83
2022/09/17 10:36:57;;;;;;;17.10;3.85;;;;;;;13.82;75.23;99715.34;5008070;28;20490;-83
2022/09/17 10:39:27;;;;;;;14.07;3.50;;;;;;;13.97;73.52;99713.75;4988941;28;20132;-83
2022/09/17 10:41:57;;;;;;;15.02;3.33;;;;;;;14.02;73.58;99714.09;5043030;28;20060;-83
2022/09/17 10:44:26;;;;;;;15.43;4.18;;;;;;;14.13;73.92;99709.47;5008490;28;20049;-84
2022/09/17 10:46:54;;;;;;;15.35;3.60;;;;;;;14.20;73.96;99714.00;5031530;28;20045;-84
2022/09/17 10:49:37;;;;;;;13.23;3.78;;;;;;;14.21;74.78;99725.50;5031344;28;20079;-83
2022/09/17 10:52:31;;;;;;;21.27;3.55;;;;;;;14.24;74.28;99738.53;4976721;28;20115;-82
2022/09/17 10:55:22;;;;;;;14.32;3.15;;;;;;;14.29;74.50;99739.72;5003397;28;20096;-82
2022/09/17 10:58:00;;;;;;;14.02;3.30;;;;;;;14.28;75.07;99723.88;5043067;28;20044;-83
2022/09/17 11:00:32;;;;;;;13.15;2.97;;;;;;;14.37;73.82;99722.88;5024493;28;20041;-85
2022/09/17 11:03:15;;;;;;;10.27;2.55;;;;;;;14.39;73.83;99723.56;5020997;28;20471;-82
2022/09/17 11:06:12;;;;;;;11.88;3.20;;;;;;;14.34;72.83;99728.56;5003113;28;20190;-83
2022/09/17 11:08:56;;;;;;;11.60;2.65;;;;;;;14.40;72.62;99730.59;4975285;28;20119;-82
2022/09/17 11:12:00;;;;;;;13.35;3.33;;;;;;;14.44;73.06;99718.56;5015128;28;20639;-82
2022/09/17 11:14:41;;;;;;;18.23;3.38;;;;;;;14.48;73.25;99716.41;4938180;28;20044;-83
2022/09/17 11:17:18;;;;;;;11.88;3.70;;;;;;;14.47;71.67;99710.22;5003988;28;20968;-82
2022/09/17 11:20:00;;;;;;;10.57;2.42;;;;;;;14.46;69.31;99715.75;5039116;28;20159;-83
2022/09/17 11:22:44;;;;;;;11.00;2.95;;;;;;;14.50;70.80;99709.03;5025881;28;20069;-85
2022/09/17 11:25:26;;;;;;;14.52;3.13;;;;;;;14.53;68.52;99701.59;4985150;28;20049;-82
2022/09/17 11:28:06;;;;;;;13.05;2.78;;;;;;;14.64;70.54;99703.09;5017367;28;20041;-84
2022/09/17 11:30:52;;;;;;;12.27;2.50;;;;;;;14.60;70.27;99704.41;5012038;28;20052;-83
2022/09/17 11:33:41;;;;;;;9.45;2.20;;;;;;;14.63;70.41;99703.25;4975478;28;20041;-82
2022/09/17 11:36:13;;;;;;;20.77;2.85;;;;;;;14.58;68.58;99709.13;4984681;28;20038;-83
2022/09/17 11:38:43;;;;;;;12.47;2.67;;;;;;;14.49;68.30;99720.75;5019698;28;20129;-83
2022/09/17 11:41:18;;;;;;;9.95;2.53;;;;;;;14.32;67.41;99739.41;5027936;28;20038;-84
2022/09/17 11:44:24;;;;;;;23.15;3.53;;;;;;;14.00;70.58;99755.31;5024682;28;20404;-84
2022/09/17 11:47:12;;;;;;;9.45;1.80;;;;;;;13.71;65.84;99727.13;5026763;28;20041;-83
2022/09/17 11:49:49;;;;;;;10.50;2.13;;;;;;;13.82;70.37;99740.19;4987132;28;20471;-82
2022/09/17 11:52:16;;;;;;;8.27;1.65;;;;;;;13.93;70.01;99725.72;5032787;28;20500;-83
2022/09/17 11:54:54;;;;;;;9.23;2.42;;;;;;;13.68;68.03;99757.63;5033552;28;20048;-83
2022/09/17 11:57:26;;;;;;;6.00;2.13;;;;;;;13.71;69.54;99751.13;4986847;28;20060;-84
2022/09/17 12:00:04;;;;;;;5.70;1.70;;;;;;;13.51;67.83;99729.19;5013895;28;20116;-84
2022/09/17 12:03:00;;;;;;;14.65;2.28;;;;;;;13.48;69.45;99724.16;5035726;28;20135;-84
2022/09/17 12:05:45;;;;;;;8.98;2.05;;;;;;;13.52;71.64;99716.69;5026949;28;20527;-83
2022/09/17 12:08:36;;;;;;;10.82;2.53;;;;;;;13.57;74.21;99717.06;5018534;28;20041;-83
2022/09/17 12:11:12;;;;;;;10.40;1.98;;;;;;;13.72;72.93;99707.47;4973250;28;20096;-83
2022/09/17 12:13:44;;;;;;;14.00;2.35;;;;;;;13.81;71.89;99711.00;5040234;28;20453;-83
2022/09/17 12:16:20;;;;;;;11.32;2.97;;;;;;;13.78;71.86;99701.47;5035125;28;20041;-83
2022/09/17 12:18:53;;;;;;;10.43;2.72;;;;;;;13.89;72.02;99701.22;5022618;28;20037;-83
2022/09/17 12:21:26;;;;;;;12.55;1.98;;;;;;;13.86;71.95;99696.16;5036714;28;20462;-83